sensor_id;sensor_type;location;lat;lon;timestamp;pressure;altitude;pressure_sealevel;temperature;humidity
56731;BME280;42613;47.424;8.560;2022-07-10T00:01:41;97211.50;;;19.77;59.82
56731;BME280;42613;47.424;8.560;2022-07-10T00:04:06;97212.38;;;19.77;59.78
56731;BME280;42613;47.424;8.560;2022-07-10T00:06:32;97212.69;;;19.92;58.90
56731;BME280;42613;47.424;8.560;2022-07-10T00:08:57;97213.50;;;20.05;58.10
56731;BME280;42613;47.424;8.560;2022-07-10T00:11:23;97200.75;;;20.17;57.50
56731;BME280;42613;47.424;8.560;2022-07-10T00:13:48;97211.91;;;20.21;57.28
56731;BME280;42613;47.424;8.560;2022-07-10T00:16:13;97202.47;;;20.23;57.11
56731;BME280;42613;47.424;8.560;2022-07-10T00:18:38;97206.84;;;20.24;56.97
56731;BME280;42613;47.424;8.560;2022-07-10T00:21:04;97205.69;;;20.20;57.25
56731;BME280;42613;47.424;8.560;2022-07-10T00:23:30;97198.53;;;20.02;57.66
56731;BME280;42613;47.424;8.560;2022-07-10T00:25:55;97202.69;;;19.93;58.15
56731;BME280;42613;47.424;8.560;2022-07-10T00:28:20;97210.47;;;19.78;59.45
56731;BME280;42613;47.424;8.560;2022-07-10T00:30:46;97209.84;;;19.64;60.26
56731;BME280;42613;47.424;8.560;2022-07-10T00:33:11;97207.88;;;19.47;60.65
56731;BME280;42613;47.424;8.560;2022-07-10T00:35:37;97207.88;;;19.36;61.07
56731;BME280;42613;47.424;8.560;2022-07-10T00:38:02;97210.22;;;19.32;60.97
56731;BME280;42613;47.424;8.560;2022-07-10T00:40:27;97209.63;;;19.30;61.19
56731;BME280;42613;47.424;8.560;2022-07-10T00:42:53;97206.81;;;19.48;60.50
56731;BME280;42613;47.424;8.560;2022-07-10T00:45:18;97209.63;;;19.53;60.01
56731;BME280;42613;47.424;8.560;2022-07-10T00:47:43;97213.84;;;19.61;59.90
56731;BME280;42613;47.424;8.560;2022-07-10T00:50:09;97212.47;;;19.59;59.64
56731;BME280;42613;47.424;8.560;2022-07-10T00:52:35;97213.63;;;19.75;59.21
56731;BME280;42613;47.424;8.560;2022-07-10T00:55:05;97208.00;;;19.88;58.71
56731;BME280;42613;47.424;8.560;2022-07-10T00:57:31;97209.03;;;19.99;57.98
56731;BME280;42613;47.424;8.560;2022-07-10T00:59:58;97209.25;;;19.97;58.00
56731;BME280;42613;47.424;8.560;2022-07-10T01:02:23;97202.91;;;19.68;59.18
56731;BME280;42613;47.424;8.560;2022-07-10T01:04:48;97197.53;;;19.44;60.63
56731;BME280;42613;47.424;8.560;2022-07-10T01:07:14;97198.94;;;19.23;61.73
56731;BME280;42613;47.424;8.560;2022-07-10T01:09:41;97203.03;;;19.14;61.94
56731;BME280;42613;47.424;8.560;2022-07-10T01:12:07;97198.22;;;19.16;61.74
56731;BME280;42613;47.424;8.560;2022-07-10T01:14:33;97192.59;;;19.18;61.51
56731;BME280;42613;47.424;8.560;2022-07-10T01:17:00;97196.97;;;19.30;61.10
56731;BME280;42613;47.424;8.560;2022-07-10T01:19:26;97191.44;;;19.37;60.92
56731;BME280;42613;47.424;8.560;2022-07-10T01:21:51;97197.53;;;19.44;60.41
56731;BME280;42613;47.424;8.560;2022-07-10T01:24:17;97193.53;;;19.47;59.71
56731;BME280;42613;47.424;8.560;2022-07-10T01:26:42;97202.00;;;19.50;59.40
56731;BME280;42613;47.424;8.560;2022-07-10T01:29:09;97201.16;;;19.62;59.29
56731;BME280;42613;47.424;8.560;2022-07-10T01:31:35;97202.69;;;19.58;58.83
56731;BME280;42613;47.424;8.560;2022-07-10T01:34:01;97197.91;;;19.71;59.16
56731;BME280;42613;47.424;8.560;2022-07-10T01:36:29;97196.16;;;19.77;58.68
56731;BME280;42613;47.424;8.560;2022-07-10T01:38:58;97201.06;;;19.57;59.18
56731;BME280;42613;47.424;8.560;2022-07-10T01:41:24;97199.06;;;19.40;59.69
56731;BME280;42613;47.424;8.560;2022-07-10T01:43:50;97212.78;;;19.39;59.60
56731;BME280;42613;47.424;8.560;2022-07-10T01:46:16;97211.75;;;19.40;59.12
56731;BME280;42613;47.424;8.560;2022-07-10T01:48:42;97207.84;;;19.24;58.83
56731;BME280;42613;47.424;8.560;2022-07-10T01:51:08;97209.16;;;19.09;58.62
56731;BME280;42613;47.424;8.560;2022-07-10T01:53:34;97204.78;;;18.97;58.91
56731;BME280;42613;47.424;8.560;2022-07-10T01:56:03;97217.31;;;18.91;58.45
56731;BME280;42613;47.424;8.560;2022-07-10T01:58:29;97218.47;;;18.83;58.37
56731;BME280;42613;47.424;8.560;2022-07-10T02:00:55;97213.09;;;18.95;57.82
56731;BME280;42613;47.424;8.560;2022-07-10T02:03:20;97217.81;;;19.00;57.81
56731;BME280;42613;47.424;8.560;2022-07-10T02:06:04;97222.13;;;18.89;57.80
56731;BME280;42613;47.424;8.560;2022-07-10T02:08:29;97217.94;;;18.75;58.51
56731;BME280;42613;47.424;8.560;2022-07-10T02:10:54;97217.53;;;18.59;58.57
56731;BME280;42613;47.424;8.560;2022-07-10T02:13:20;97229.84;;;18.55;58.66
56731;BME280;42613;47.424;8.560;2022-07-10T02:15:46;97221.88;;;18.60;58.93
56731;BME280;42613;47.424;8.560;2022-07-10T02:18:12;97230.50;;;18.69;58.63
56731;BME280;42613;47.424;8.560;2022-07-10T02:20:37;97227.31;;;18.72;60.65
56731;BME280;42613;47.424;8.560;2022-07-10T02:23:03;97226.94;;;18.68;60.95
56731;BME280;42613;47.424;8.560;2022-07-10T02:25:28;97227.53;;;18.70;60.88
56731;BME280;42613;47.424;8.560;2022-07-10T02:27:53;97223.53;;;18.80;59.65
56731;BME280;42613;47.424;8.560;2022-07-10T02:30:19;97221.25;;;19.19;59.16
56731;BME280;42613;47.424;8.560;2022-07-10T02:32:44;97223.59;;;19.39;57.29
56731;BME280;42613;47.424;8.560;2022-07-10T02:35:10;97219.25;;;19.14;57.59
56731;BME280;42613;47.424;8.560;2022-07-10T02:37:35;97230.53;;;18.81;58.61
56731;BME280;42613;47.424;8.560;2022-07-10T02:40:00;97228.72;;;18.75;58.71
56731;BME280;42613;47.424;8.560;2022-07-10T02:42:26;97226.81;;;18.63;59.16
56731;BME280;42613;47.424;8.560;2022-07-10T02:44:51;97230.16;;;18.47;59.63
56731;BME280;42613;47.424;8.560;2022-07-10T02:47:16;97227.66;;;18.34;59.88
56731;BME280;42613;47.424;8.560;2022-07-10T02:49:42;97225.84;;;18.27;60.39
56731;BME280;42613;47.424;8.560;2022-07-10T02:52:09;97225.94;;;18.21;60.88
56731;BME280;42613;47.424;8.560;2022-07-10T02:54:34;97215.38;;;18.19;61.14
56731;BME280;42613;47.424;8.560;2022-07-10T02:56:59;97224.13;;;18.33;60.15
56731;BME280;42613;47.424;8.560;2022-07-10T02:59:25;97222.09;;;18.28;60.33
56731;BME280;42613;47.424;8.560;2022-07-10T03:01:50;97221.75;;;18.25;60.41
56731;BME280;42613;47.424;8.560;2022-07-10T03:04:15;97223.75;;;18.11;60.92
56731;BME280;42613;47.424;8.560;2022-07-10T03:06:41;97225.13;;;18.02;61.46
56731;BME280;42613;47.424;8.560;2022-07-10T03:09:06;97227.81;;;18.02;61.60
56731;BME280;42613;47.424;8.560;2022-07-10T03:11:31;97231.09;;;18.22;61.27
56731;BME280;42613;47.424;8.560;2022-07-10T03:13:56;97224.56;;;18.30;60.82
56731;BME280;42613;47.424;8.560;2022-07-10T03:16:22;97220.38;;;18.34;60.64
56731;BME280;42613;47.424;8.560;2022-07-10T03:18:47;97228.69;;;18.33;60.91
56731;BME280;42613;47.424;8.560;2022-07-10T03:21:13;97229.66;;;18.38;60.35
56731;BME280;42613;47.424;8.560;2022-07-10T03:23:38;97224.25;;;18.38;60.51
56731;BME280;42613;47.424;8.560;2022-07-10T03:26:06;97228.31;;;18.29;60.85
56731;BME280;42613;47.424;8.560;2022-07-10T03:28:31;97229.31;;;18.16;61.21
56731;BME280;42613;47.424;8.560;2022-07-10T03:30:57;97226.16;;;18.19;61.22
56731;BME280;42613;47.424;8.560;2022-07-10T03:33:22;97227.03;;;18.31;60.86
56731;BME280;42613;47.424;8.560;2022-07-10T03:35:47;97227.13;;;18.25;61.09
56731;BME280;42613;47.424;8.560;2022-07-10T03:38:13;97226.03;;;18.14;60.90
56731;BME280;42613;47.424;8.560;2022-07-10T03:40:38;97228.34;;;18.10;61.83
56731;BME280;42613;47.424;8.560;2022-07-10T03:43:04;97228.63;;;18.02;62.15
56731;BME280;42613;47.424;8.560;2022-07-10T03:45:29;97232.38;;;18.20;61.43
56731;BME280;42613;47.424;8.560;2022-07-10T03:47:54;97227.94;;;18.25;61.21
56731;BME280;42613;47.424;8.560;2022-07-10T03:50:20;97225.25;;;18.25;61.26
56731;BME280;42613;47.424;8.560;2022-07-10T03:52:45;97222.25;;;18.15;61.46
56731;BME280;42613;47.424;8.560;2022-07-10T03:55:11;97220.28;;;18.22;61.27
56731;BME280;42613;47.424;8.560;2022-07-10T03:57:37;97219.34;;;18.17;61.54
56731;BME280;42613;47.424;8.560;2022-07-10T04:00:22;97212.97;;;18.11;61.74
56731;BME280;42613;47.424;8.560;2022-07-10T04:02:48;97215.53;;;18.06;61.85
56731;BME280;42613;47.424;8.560;2022-07-10T04:05:14;97209.03;;;17.95;62.09
56731;BME280;42613;47.424;8.560;2022-07-10T04:07:39;97214.44;;;17.95;62.19
56731;BME280;42613;47.424;8.560;2022-07-10T04:10:05;97217.13;;;17.95;62.14
56731;BME280;42613;47.424;8.560;2022-07-10T04:12:31;97216.56;;;18.05;61.89
56731;BME280;42613;47.424;8.560;2022-07-10T04:14:56;97209.38;;;18.17;61.70
56731;BME280;42613;47.424;8.560;2022-07-10T04:17:22;97212.28;;;18.64;60.61
56731;BME280;42613;47.424;8.560;2022-07-10T04:19:47;97211.00;;;18.67;59.97
56731;BME280;42613;47.424;8.560;2022-07-10T04:22:12;97217.06;;;18.62;60.34
56731;BME280;42613;47.424;8.560;2022-07-10T04:24:38;97218.44;;;18.23;61.21
56731;BME280;42613;47.424;8.560;2022-07-10T04:27:04;97209.56;;;18.04;62.09
56731;BME280;42613;47.424;8.560;2022-07-10T04:29:29;97212.75;;;17.94;62.34
56731;BME280;42613;47.424;8.560;2022-07-10T04:31:55;97216.97;;;17.90;62.48
56731;BME280;42613;47.424;8.560;2022-07-10T04:34:20;97222.13;;;17.92;62.68
56731;BME280;42613;47.424;8.560;2022-07-10T04:36:45;97224.97;;;17.97;62.48
56731;BME280;42613;47.424;8.560;2022-07-10T04:39:11;97220.34;;;18.04;62.24
56731;BME280;42613;47.424;8.560;2022-07-10T04:41:36;97215.28;;;18.07;62.20
56731;BME280;42613;47.424;8.560;2022-07-10T04:44:02;97220.78;;;18.01;62.46
56731;BME280;42613;47.424;8.560;2022-07-10T04:46:28;97226.84;;;17.96;62.62
56731;BME280;42613;47.424;8.560;2022-07-10T04:48:53;97234.25;;;17.82;63.28
56731;BME280;42613;47.424;8.560;2022-07-10T04:51:18;97238.31;;;17.92;63.22
56731;BME280;42613;47.424;8.560;2022-07-10T04:53:44;97228.72;;;17.96;63.01
56731;BME280;42613;47.424;8.560;2022-07-10T04:56:09;97231.03;;;18.10;62.55
56731;BME280;42613;47.424;8.560;2022-07-10T04:58:35;97229.63;;;18.57;61.08
56731;BME280;42613;47.424;8.560;2022-07-10T05:01:00;97223.81;;;18.71;60.72
56731;BME280;42613;47.424;8.560;2022-07-10T05:03:26;97230.78;;;18.79;60.22
56731;BME280;42613;47.424;8.560;2022-07-10T05:05:52;97236.47;;;18.71;60.43
56731;BME280;42613;47.424;8.560;2022-07-10T05:08:18;97228.78;;;18.56;60.95
56731;BME280;42613;47.424;8.560;2022-07-10T05:10:43;97230.84;;;18.42;61.70
56731;BME280;42613;47.424;8.560;2022-07-10T05:13:10;97226.53;;;18.23;62.33
56731;BME280;42613;47.424;8.560;2022-07-10T05:15:36;97233.88;;;18.16;62.51
56731;BME280;42613;47.424;8.560;2022-07-10T05:18:01;97236.94;;;18.01;62.99
56731;BME280;42613;47.424;8.560;2022-07-10T05:20:26;97236.19;;;17.94;63.48
56731;BME280;42613;47.424;8.560;2022-07-10T05:22:51;97234.78;;;17.91;63.74
56731;BME280;42613;47.424;8.560;2022-07-10T05:25:17;97240.31;;;17.96;63.91
56731;BME280;42613;47.424;8.560;2022-07-10T05:27:42;97233.03;;;17.97;63.64
56731;BME280;42613;47.424;8.560;2022-07-10T05:30:08;97233.88;;;17.97;63.54
56731;BME280;42613;47.424;8.560;2022-07-10T05:32:33;97236.72;;;18.02;63.49
56731;BME280;42613;47.424;8.560;2022-07-10T05:34:58;97239.25;;;18.16;63.14
56731;BME280;42613;47.424;8.560;2022-07-10T05:37:24;97246.59;;;18.27;62.85
56731;BME280;42613;47.424;8.560;2022-07-10T05:39:49;97247.56;;;18.33;62.77
56731;BME280;42613;47.424;8.560;2022-07-10T05:42:15;97243.34;;;18.55;62.44
56731;BME280;42613;47.424;8.560;2022-07-10T05:44:40;97241.50;;;18.98;61.21
56731;BME280;42613;47.424;8.560;2022-07-10T05:47:05;97240.72;;;19.21;60.22
56731;BME280;42613;47.424;8.560;2022-07-10T05:49:32;97242.97;;;19.36;59.02
56731;BME280;42613;47.424;8.560;2022-07-10T05:51:58;97242.28;;;19.40;59.19
56731;BME280;42613;47.424;8.560;2022-07-10T05:54:23;97231.94;;;19.49;59.14
56731;BME280;42613;47.424;8.560;2022-07-10T05:56:48;97241.13;;;20.07;56.94
56731;BME280;42613;47.424;8.560;2022-07-10T05:59:14;97236.66;;;19.89;57.75
56731;BME280;42613;47.424;8.560;2022-07-10T06:01:39;97238.19;;;19.97;57.51
56731;BME280;42613;47.424;8.560;2022-07-10T06:04:05;97233.81;;;19.96;57.28
56731;BME280;42613;47.424;8.560;2022-07-10T06:06:30;97243.47;;;19.56;58.72
56731;BME280;42613;47.424;8.560;2022-07-10T06:08:56;97234.53;;;19.20;59.71
56731;BME280;42613;47.424;8.560;2022-07-10T06:11:21;97235.19;;;19.04;60.33
56731;BME280;42613;47.424;8.560;2022-07-10T06:13:47;97240.03;;;19.14;60.44
56731;BME280;42613;47.424;8.560;2022-07-10T06:16:12;97237.34;;;19.61;59.16
56731;BME280;42613;47.424;8.560;2022-07-10T06:18:37;97238.50;;;19.29;59.73
56731;BME280;42613;47.424;8.560;2022-07-10T06:21:03;97234.19;;;19.87;58.44
56731;BME280;42613;47.424;8.560;2022-07-10T06:23:28;97236.66;;;20.01;57.64
56731;BME280;42613;47.424;8.560;2022-07-10T06:25:54;97226.44;;;20.43;56.24
56731;BME280;42613;47.424;8.560;2022-07-10T06:28:19;97237.09;;;20.50;55.53
56731;BME280;42613;47.424;8.560;2022-07-10T06:30:45;97231.63;;;20.73;54.85
56731;BME280;42613;47.424;8.560;2022-07-10T06:33:13;97239.91;;;21.29;52.89
56731;BME280;42613;47.424;8.560;2022-07-10T06:35:39;97234.13;;;20.92;52.65
56731;BME280;42613;47.424;8.560;2022-07-10T06:38:04;97240.91;;;21.40;52.58
56731;BME280;42613;47.424;8.560;2022-07-10T06:40:29;97244.81;;;21.83;51.54
56731;BME280;42613;47.424;8.560;2022-07-10T06:42:59;97243.75;;;21.67;51.34
56731;BME280;42613;47.424;8.560;2022-07-10T06:45:24;97236.94;;;21.65;51.14
56731;BME280;42613;47.424;8.560;2022-07-10T06:47:50;97237.59;;;21.38;51.79
56731;BME280;42613;47.424;8.560;2022-07-10T06:50:22;97246.91;;;21.42;52.18
56731;BME280;42613;47.424;8.560;2022-07-10T06:52:48;97243.13;;;21.60;50.97
56731;BME280;42613;47.424;8.560;2022-07-10T06:55:14;97247.88;;;21.70;51.21
56731;BME280;42613;47.424;8.560;2022-07-10T06:57:40;97246.59;;;21.94;49.88
56731;BME280;42613;47.424;8.560;2022-07-10T07:00:06;97257.75;;;21.59;51.01
56731;BME280;42613;47.424;8.560;2022-07-10T07:02:32;97249.06;;;21.96;50.44
56731;BME280;42613;47.424;8.560;2022-07-10T07:04:57;97247.38;;;22.12;49.62
56731;BME280;42613;47.424;8.560;2022-07-10T07:07:22;97244.31;;;21.86;50.28
56731;BME280;42613;47.424;8.560;2022-07-10T07:09:48;97240.69;;;21.98;50.43
56731;BME280;42613;47.424;8.560;2022-07-10T07:12:15;97240.91;;;22.35;49.50
56731;BME280;42613;47.424;8.560;2022-07-10T07:14:41;97246.91;;;22.20;49.12
56731;BME280;42613;47.424;8.560;2022-07-10T07:17:07;97239.72;;;22.09;50.18
56731;BME280;42613;47.424;8.560;2022-07-10T07:19:34;97238.31;;;22.45;49.57
56731;BME280;42613;47.424;8.560;2022-07-10T07:22:21;97248.50;;;22.16;49.68
56731;BME280;42613;47.424;8.560;2022-07-10T07:25:06;97234.84;;;22.28;49.61
56731;BME280;42613;47.424;8.560;2022-07-10T07:27:33;97232.97;;;22.11;49.74
56731;BME280;42613;47.424;8.560;2022-07-10T07:30:07;97235.38;;;22.52;49.11
56731;BME280;42613;47.424;8.560;2022-07-10T07:32:33;97235.63;;;22.72;48.57
56731;BME280;42613;47.424;8.560;2022-07-10T07:34:59;97233.38;;;22.91;48.25
56731;BME280;42613;47.424;8.560;2022-07-10T07:37:43;97225.56;;;23.00;47.99
56731;BME280;42613;47.424;8.560;2022-07-10T07:40:10;97235.53;;;22.89;48.16
56731;BME280;42613;47.424;8.560;2022-07-10T07:42:37;97244.19;;;22.86;48.40
56731;BME280;42613;47.424;8.560;2022-07-10T07:45:03;97243.31;;;22.81;48.51
56731;BME280;42613;47.424;8.560;2022-07-10T07:47:30;97239.59;;;22.87;48.32
56731;BME280;42613;47.424;8.560;2022-07-10T07:49:56;97238.91;;;23.29;47.63
56731;BME280;42613;47.424;8.560;2022-07-10T07:52:21;97226.84;;;23.20;47.58
56731;BME280;42613;47.424;8.560;2022-07-10T07:54:48;97228.97;;;23.12;47.89
56731;BME280;42613;47.424;8.560;2022-07-10T07:57:14;97238.59;;;22.98;48.06
56731;BME280;42613;47.424;8.560;2022-07-10T07:59:39;97229.75;;;23.08;47.88
56731;BME280;42613;47.424;8.560;2022-07-10T08:02:05;97241.88;;;23.27;47.56
56731;BME280;42613;47.424;8.560;2022-07-10T08:04:30;97234.09;;;22.82;48.58
56731;BME280;42613;47.424;8.560;2022-07-10T08:06:56;97237.91;;;23.08;48.22
56731;BME280;42613;47.424;8.560;2022-07-10T08:09:21;97242.59;;;23.17;48.07
56731;BME280;42613;47.424;8.560;2022-07-10T08:11:47;97242.41;;;23.24;47.78
56731;BME280;42613;47.424;8.560;2022-07-10T08:14:13;97239.31;;;23.15;48.04
56731;BME280;42613;47.424;8.560;2022-07-10T08:16:38;97233.59;;;23.12;48.08
56731;BME280;42613;47.424;8.560;2022-07-10T08:19:05;97229.94;;;23.28;47.96
56731;BME280;42613;47.424;8.560;2022-07-10T08:21:30;97226.63;;;23.58;46.96
56731;BME280;42613;47.424;8.560;2022-07-10T08:23:55;97231.59;;;23.67;46.95
56731;BME280;42613;47.424;8.560;2022-07-10T08:26:21;97225.03;;;23.63;46.95
56731;BME280;42613;47.424;8.560;2022-07-10T08:28:46;97232.47;;;23.40;47.38
56731;BME280;42613;47.424;8.560;2022-07-10T08:31:12;97221.78;;;23.28;47.74
56731;BME280;42613;47.424;8.560;2022-07-10T08:33:37;97218.56;;;23.36;47.18
56731;BME280;42613;47.424;8.560;2022-07-10T08:36:03;97225.56;;;23.27;47.85
56731;BME280;42613;47.424;8.560;2022-07-10T08:38:29;97225.06;;;23.68;47.35
56731;BME280;42613;47.424;8.560;2022-07-10T08:40:56;97224.00;;;23.74;47.03
56731;BME280;42613;47.424;8.560;2022-07-10T08:43:24;97217.59;;;23.90;46.58
56731;BME280;42613;47.424;8.560;2022-07-10T08:45:53;97218.41;;;23.53;47.38
56731;BME280;42613;47.424;8.560;2022-07-10T08:48:23;97216.13;;;23.35;47.74
56731;BME280;42613;47.424;8.560;2022-07-10T08:50:52;97215.22;;;23.62;47.47
56731;BME280;42613;47.424;8.560;2022-07-10T08:53:26;97219.78;;;23.88;46.89
56731;BME280;42613;47.424;8.560;2022-07-10T08:55:54;97218.72;;;23.94;46.60
56731;BME280;42613;47.424;8.560;2022-07-10T08:58:19;97216.88;;;24.05;46.39
56731;BME280;42613;47.424;8.560;2022-07-10T09:00:46;97213.47;;;23.77;47.06
56731;BME280;42613;47.424;8.560;2022-07-10T09:03:12;97208.28;;;23.06;48.64
56731;BME280;42613;47.424;8.560;2022-07-10T09:05:37;97218.09;;;22.85;49.51
56731;BME280;42613;47.424;8.560;2022-07-10T09:08:03;97204.47;;;23.40;48.00
56731;BME280;42613;47.424;8.560;2022-07-10T09:10:28;97215.38;;;23.77;47.28
56731;BME280;42613;47.424;8.560;2022-07-10T09:12:56;97211.00;;;23.76;47.42
56731;BME280;42613;47.424;8.560;2022-07-10T09:15:24;97213.44;;;23.40;47.88
56731;BME280;42613;47.424;8.560;2022-07-10T09:17:59;97206.25;;;23.24;48.35
56731;BME280;42613;47.424;8.560;2022-07-10T09:20:35;97211.69;;;23.24;48.58
56731;BME280;42613;47.424;8.560;2022-07-10T09:25:39;97211.56;;;23.08;48.42
56731;BME280;42613;47.424;8.560;2022-07-10T09:28:05;97210.19;;;23.06;48.31
56731;BME280;42613;47.424;8.560;2022-07-10T09:30:38;97202.16;;;22.94;48.52
56731;BME280;42613;47.424;8.560;2022-07-10T09:33:23;97209.13;;;22.85;49.04
56731;BME280;42613;47.424;8.560;2022-07-10T09:36:09;97200.84;;;22.96;49.09
56731;BME280;42613;47.424;8.560;2022-07-10T09:41:17;97202.97;;;23.22;48.43
56731;BME280;42613;47.424;8.560;2022-07-10T10:00:35;97196.78;;;23.26;48.23
56731;BME280;42613;47.424;8.560;2022-07-10T10:03:10;97200.25;;;23.22;47.66
56731;BME280;42613;47.424;8.560;2022-07-10T10:06:17;97202.41;;;23.20;47.66
56731;BME280;42613;47.424;8.560;2022-07-10T10:09:04;97198.06;;;23.19;48.25
56731;BME280;42613;47.424;8.560;2022-07-10T10:14:37;97191.06;;;23.28;48.41
56731;BME280;42613;47.424;8.560;2022-07-10T10:17:26;97197.66;;;23.37;47.72
56731;BME280;42613;47.424;8.560;2022-07-10T10:19:56;97189.44;;;23.27;47.58
56731;BME280;42613;47.424;8.560;2022-07-10T11:08:02;97144.38;;;24.57;44.72
56731;BME280;42613;47.424;8.560;2022-07-10T11:10:35;97140.31;;;24.65;44.45
56731;BME280;42613;47.424;8.560;2022-07-10T11:13:07;97142.50;;;24.63;44.13
56731;BME280;42613;47.424;8.560;2022-07-10T11:15:38;97136.78;;;24.69;42.93
56731;BME280;42613;47.424;8.560;2022-07-10T11:18:12;97136.78;;;24.74;43.37
56731;BME280;42613;47.424;8.560;2022-07-10T11:20:42;97136.22;;;24.67;42.62
56731;BME280;42613;47.424;8.560;2022-07-10T11:25:48;97138.38;;;24.55;43.17
56731;BME280;42613;47.424;8.560;2022-07-10T11:28:32;97130.72;;;24.36;42.30
56731;BME280;42613;47.424;8.560;2022-07-10T11:31:03;97137.25;;;24.46;42.89
56731;BME280;42613;47.424;8.560;2022-07-10T11:33:38;97130.75;;;24.57;43.20
56731;BME280;42613;47.424;8.560;2022-07-10T11:36:10;97124.78;;;24.75;43.28
56731;BME280;42613;47.424;8.560;2022-07-10T11:38:37;97121.50;;;24.78;43.20
56731;BME280;42613;47.424;8.560;2022-07-10T11:41:04;97125.34;;;24.88;43.05
56731;BME280;42613;47.424;8.560;2022-07-10T11:43:29;97130.25;;;24.86;42.05
56731;BME280;42613;47.424;8.560;2022-07-10T11:45:55;97122.63;;;24.98;41.59
56731;BME280;42613;47.424;8.560;2022-07-10T11:48:24;97121.78;;;25.18;41.54
56731;BME280;42613;47.424;8.560;2022-07-10T11:50:50;97114.16;;;25.30;40.33
56731;BME280;42613;47.424;8.560;2022-07-10T11:53:23;97123.44;;;25.19;40.30
56731;BME280;42613;47.424;8.560;2022-07-10T11:55:49;97116.63;;;25.32;40.12
56731;BME280;42613;47.424;8.560;2022-07-10T11:58:16;97120.97;;;25.38;40.08
56731;BME280;42613;47.424;8.560;2022-07-10T12:00:42;97123.97;;;25.47;40.64
56731;BME280;42613;47.424;8.560;2022-07-10T12:03:19;97107.03;;;25.55;40.00
56731;BME280;42613;47.424;8.560;2022-07-10T12:05:45;97108.34;;;25.68;39.61
56731;BME280;42613;47.424;8.560;2022-07-10T12:08:11;97101.78;;;25.74;40.27
56731;BME280;42613;47.424;8.560;2022-07-10T12:10:38;97102.28;;;25.81;40.57
56731;BME280;42613;47.424;8.560;2022-07-10T12:13:13;97113.22;;;25.76;39.54
56731;BME280;42613;47.424;8.560;2022-07-10T12:15:44;97105.06;;;25.71;40.18
56731;BME280;42613;47.424;8.560;2022-07-10T12:18:16;97104.78;;;25.67;40.72
56731;BME280;42613;47.424;8.560;2022-07-10T12:20:43;97102.91;;;25.63;40.92
56731;BME280;42613;47.424;8.560;2022-07-10T12:23:15;97100.44;;;25.61;40.96
56731;BME280;42613;47.424;8.560;2022-07-10T12:25:46;97103.69;;;25.73;39.85
56731;BME280;42613;47.424;8.560;2022-07-10T12:28:13;97106.41;;;25.78;40.67
56731;BME280;42613;47.424;8.560;2022-07-10T12:30:41;97102.28;;;25.81;39.75
56731;BME280;42613;47.424;8.560;2022-07-10T12:33:10;97098.72;;;25.86;39.66
56731;BME280;42613;47.424;8.560;2022-07-10T12:35:58;97104.22;;;25.75;38.36
56731;BME280;42613;47.424;8.560;2022-07-10T12:38:25;97099.94;;;25.44;38.58
56731;BME280;42613;47.424;8.560;2022-07-10T12:41:04;97101.56;;;25.50;38.95
56731;BME280;42613;47.424;8.560;2022-07-10T12:43:30;97098.25;;;25.68;39.78
56731;BME280;42613;47.424;8.560;2022-07-10T12:46:16;97090.28;;;25.82;39.57
56731;BME280;42613;47.424;8.560;2022-07-10T12:48:43;97092.13;;;26.02;37.48
56731;BME280;42613;47.424;8.560;2022-07-10T12:51:26;97090.16;;;26.13;37.24
56731;BME280;42613;47.424;8.560;2022-07-10T12:53:53;97089.84;;;26.25;36.88
56731;BME280;42613;47.424;8.560;2022-07-10T12:56:32;97084.59;;;26.33;36.87
56731;BME280;42613;47.424;8.560;2022-07-10T12:58:59;97088.16;;;26.29;36.92
56731;BME280;42613;47.424;8.560;2022-07-10T13:01:26;97075.56;;;26.33;37.54
56731;BME280;42613;47.424;8.560;2022-07-10T13:04:00;97084.53;;;26.38;38.04
56731;BME280;42613;47.424;8.560;2022-07-10T13:06:27;97070.63;;;26.40;37.85
56731;BME280;42613;47.424;8.560;2022-07-10T13:08:53;97075.56;;;26.33;37.55
56731;BME280;42613;47.424;8.560;2022-07-10T13:11:19;97075.44;;;26.53;36.88
56731;BME280;42613;47.424;8.560;2022-07-10T13:13:44;97067.13;;;26.69;35.96
56731;BME280;42613;47.424;8.560;2022-07-10T13:16:09;97072.06;;;27.01;37.12
56731;BME280;42613;47.424;8.560;2022-07-10T13:18:35;97078.81;;;27.09;36.02
56731;BME280;42613;47.424;8.560;2022-07-10T13:21:00;97065.53;;;27.26;35.46
56731;BME280;42613;47.424;8.560;2022-07-10T13:23:28;97067.25;;;27.17;36.75
56731;BME280;42613;47.424;8.560;2022-07-10T13:25:54;97059.94;;;27.12;36.81
56731;BME280;42613;47.424;8.560;2022-07-10T13:28:20;97068.31;;;27.21;37.15
56731;BME280;42613;47.424;8.560;2022-07-10T13:30:46;97067.94;;;27.04;36.98
56731;BME280;42613;47.424;8.560;2022-07-10T13:33:12;97069.38;;;26.96;36.80
56731;BME280;42613;47.424;8.560;2022-07-10T13:35:37;97057.56;;;27.00;37.16
56731;BME280;42613;47.424;8.560;2022-07-10T13:38:04;97059.94;;;27.12;36.94
56731;BME280;42613;47.424;8.560;2022-07-10T13:40:31;97060.97;;;27.16;36.78
56731;BME280;42613;47.424;8.560;2022-07-10T13:42:57;97065.91;;;27.14;36.44
56731;BME280;42613;47.424;8.560;2022-07-10T13:45:23;97065.84;;;27.19;35.41
56731;BME280;42613;47.424;8.560;2022-07-10T13:47:58;97058.69;;;27.29;35.15
56731;BME280;42613;47.424;8.560;2022-07-10T13:50:24;97059.69;;;27.38;34.08
56731;BME280;42613;47.424;8.560;2022-07-10T13:52:50;97064.88;;;27.39;34.14
56731;BME280;42613;47.424;8.560;2022-07-10T13:55:15;97058.97;;;27.51;33.97
56731;BME280;42613;47.424;8.560;2022-07-10T13:57:41;97058.78;;;27.48;34.96
56731;BME280;42613;47.424;8.560;2022-07-10T14:00:08;97058.88;;;27.37;33.55
56731;BME280;42613;47.424;8.560;2022-07-10T14:02:33;97055.34;;;27.37;33.33
56731;BME280;42613;47.424;8.560;2022-07-10T14:04:59;97060.06;;;27.26;34.00
56731;BME280;42613;47.424;8.560;2022-07-10T14:07:24;97054.31;;;27.28;34.62
56731;BME280;42613;47.424;8.560;2022-07-10T14:09:49;97062.03;;;27.20;33.62
56731;BME280;42613;47.424;8.560;2022-07-10T14:12:15;97061.16;;;26.96;33.82
56731;BME280;42613;47.424;8.560;2022-07-10T14:14:41;97064.84;;;26.81;34.16